Time;durP1;ratioP1;P1;durP2;ratioP2;P2;SDS_P1;SDS_P2;PMS_P1;PMS_P2;Temp;Humidity;BMP_temperature;BMP_pressure;BME280_temperature;BME280_humidity;BME280_pressure;Samples;Min_cycle;Max_cycle;Signal;HPM_P1;HPM_P2
2021/10/16 00:01:17;;;;;;;;;11.00;10.00;;;;;13.54;71.45;101839.59;4974986;28;46714;-74
2021/10/16 00:03:42;;;;;;;;;10.67;10.67;;;;;13.56;71.32;101845.78;5035969;28;45473;-74
2021/10/16 00:06:08;;;;;;;;;10.67;10.67;;;;;13.54;71.21;101839.59;5039081;28;56585;-74
2021/10/16 00:08:34;;;;;;;;;12.00;11.00;;;;;13.50;71.23;101840.41;5057517;28;45355;-74
2021/10/16 00:10:59;;;;;;;;;13.67;13.00;;;;;13.48;70.99;101839.50;5056818;28;57937;-73
2021/10/16 00:13:25;;;;;;;;;14.33;13.00;;;;;13.46;71.22;101851.81;5056816;28;58956;-74
2021/10/16 00:15:50;;;;;;;;;11.33;10.33;;;;;13.40;71.22;101843.78;5032086;28;46479;-74
2021/10/16 00:18:16;;;;;;;;;10.67;10.67;;;;;13.40;71.01;101849.09;4996596;28;45264;-73
2021/10/16 00:20:41;;;;;;;;;12.00;12.00;;;;;13.36;71.14;101850.78;4974808;28;46344;-73
2021/10/16 00:23:07;;;;;;;;;13.33;12.67;;;;;13.32;71.12;101845.44;4973566;28;54282;-74
2021/10/16 00:25:32;;;;;;;;;13.00;11.67;;;;;13.32;71.11;101851.63;5055378;28;45332;-73
2021/10/16 00:27:58;;;;;;;;;12.67;10.00;;;;;13.29;71.25;101843.59;4999768;28;45344;-74
2021/10/16 00:30:23;;;;;;;;;14.33;11.00;;;;;13.28;71.08;101854.19;4985664;28;62678;-74
2021/10/16 00:32:48;;;;;;;;;10.00;10.00;;;;;13.28;71.45;101856.84;4974320;28;45422;-74
2021/10/16 00:35:14;;;;;;;;;13.00;10.00;;;;;13.28;71.55;101848.91;4978464;28;45877;-74
2021/10/16 00:37:39;;;;;;;;;13.00;12.00;;;;;13.28;71.52;101852.44;4980243;28;54687;-74
2021/10/16 00:40:05;;;;;;;;;16.00;10.33;;;;;13.28;71.45;101849.78;4974103;28;46358;-73
2021/10/16 00:42:31;;;;;;;;;12.00;11.00;;;;;13.28;71.53;101851.56;5010392;28;45296;-74
2021/10/16 00:45:01;;;;;;;;;14.33;11.67;;;;;13.26;71.65;101845.31;5056768;28;45322;-74
2021/10/16 00:47:27;;;;;;;;;10.00;9.00;;;;;13.25;71.63;101844.41;5057176;28;45443;-73
2021/10/16 00:49:52;;;;;;;;;11.00;9.00;;;;;13.26;71.50;101847.97;4987574;28;58867;-73
2021/10/16 00:52:17;;;;;;;;;11.67;9.67;;;;;13.25;71.46;101846.19;4973831;28;54667;-73
2021/10/16 00:54:43;;;;;;;;;11.67;11.00;;;;;13.23;71.34;101845.28;4956837;28;45696;-74
2021/10/16 00:57:10;;;;;;;;;13.67;11.00;;;;;13.22;71.16;101848.81;4956788;28;45405;-74
2021/10/16 00:59:35;;;;;;;;;11.00;11.00;;;;;13.20;71.37;101846.06;5027094;28;46773;-73
2021/10/16 01:02:01;;;;;;;;;9.00;8.67;;;;;13.18;71.23;101850.47;4974225;28;45359;-73
2021/10/16 01:04:26;;;;;;;;;12.67;10.00;;;;;13.18;71.31;101838.97;4956646;28;45367;-73
2021/10/16 01:06:52;;;;;;;;;12.00;12.00;;;;;13.15;71.19;101842.44;4992267;28;53555;-74
2021/10/16 01:09:17;;;;;;;;;12.33;9.00;;;;;13.10;71.19;101842.41;4973513;28;60544;-74
2021/10/16 01:11:53;;;;;;;;;14.00;11.00;;;;;13.10;71.20;101847.69;4940509;28;45433;-73
2021/10/16 01:14:19;;;;;;;;;14.33;9.33;;;;;13.09;71.15;101843.22;4957167;28;45465;-74
2021/10/16 01:16:46;;;;;;;;;9.00;9.00;;;;;13.09;71.30;101837.94;4974367;28;45175;-74
2021/10/16 01:19:13;;;;;;;;;11.67;11.67;;;;;13.05;71.36;101833.47;4974091;28;46506;-74
2021/10/16 01:21:42;;;;;;;;;14.33;12.00;;;;;13.01;71.21;101818.38;4973552;28;45453;-73
2021/10/16 01:24:12;;;;;;;;;13.00;11.33;;;;;13.02;71.21;101828.09;5006463;28;45260;-74
2021/10/16 01:26:37;;;;;;;;;12.67;12.67;;;;;12.99;71.19;101836.00;5032092;28;45905;-74
2021/10/16 01:29:03;;;;;;;;;15.00;12.33;;;;;12.99;71.21;101829.78;5009540;28;45481;-74
2021/10/16 01:31:28;;;;;;;;;17.00;13.00;;;;;12.92;71.10;101825.28;5056225;28;45303;-74
2021/10/16 01:33:54;;;;;;;;;13.00;12.67;;;;;12.93;71.01;101832.34;5025836;28;45360;-73
2021/10/16 01:36:19;;;;;;;;;12.33;12.33;;;;;12.90;71.05;101829.66;5039573;28;52767;-74
2021/10/16 01:38:45;;;;;;;;;11.67;11.33;;;;;12.89;71.13;101825.19;5055561;28;47207;-73
2021/10/16 01:41:10;;;;;;;;;15.67;12.67;;;;;12.80;70.86;101823.31;4985910;28;45443;-74
2021/10/16 01:43:36;;;;;;;;;9.33;9.33;;;;;12.83;70.79;101825.97;5059635;28;45233;-73
2021/10/16 01:46:01;;;;;;;;;14.67;10.33;;;;;12.78;70.90;101817.97;4996154;28;54126;-73
2021/10/16 01:48:26;;;;;;;;;11.00;11.00;;;;;12.73;70.89;101824.03;4975961;28;62227;-73
2021/10/16 01:50:52;;;;;;;;;12.67;11.67;;;;;12.72;71.07;101817.84;4985087;28;56038;-73
2021/10/16 01:53:18;;;;;;;;;13.00;11.00;;;;;12.73;71.11;101824.03;5031259;28;45359;-73
2021/10/16 01:55:43;;;;;;;;;13.33;11.00;;;;;12.67;71.02;101815.97;5023318;28;54864;-73
2021/10/16 01:58:10;;;;;;;;;18.67;13.00;;;;;12.67;71.04;101821.28;5059248;28;47009;-73
2021/10/16 02:00:35;;;;;;;;;13.33;12.00;;;;;12.65;70.79;101820.38;5059246;28;45394;-73
2021/10/16 02:03:01;;;;;;;;;14.33;10.00;;;;;12.64;70.95;101821.25;5003865;28;45343;-73
2021/10/16 02:05:26;;;;;;;;;11.00;11.00;;;;;12.62;70.99;101828.25;5008028;28;45652;-73
2021/10/16 02:07:52;;;;;;;;;12.67;10.00;;;;;12.56;71.05;101806.06;4976372;28;46235;-73
2021/10/16 02:10:17;;;;;;;;;16.33;12.00;;;;;12.53;71.05;101805.16;4976101;28;58641;-73
2021/10/16 02:12:43;;;;;;;;;11.33;9.67;;;;;12.57;71.17;101807.00;5014821;28;45372;-73
2021/10/16 02:15:08;;;;;;;;;12.67;12.00;;;;;12.55;71.02;101812.25;5059149;28;45350;-73
2021/10/16 02:17:33;;;;;;;;;11.67;10.33;;;;;12.49;71.18;101796.25;5059261;28;47458;-73
2021/10/16 02:19:59;;;;;;;;;9.33;9.33;;;;;12.52;71.18;101809.56;5047894;28;48957;-73
2021/10/16 02:22:24;;;;;;;;;12.67;12.00;;;;;12.51;71.26;101799.78;5029741;28;54521;-73
2021/10/16 02:24:50;;;;;;;;;13.00;10.00;;;;;12.50;71.20;101802.44;5014379;28;51220;-73
2021/10/16 02:27:15;;;;;;;;;16.33;15.00;;;;;12.48;71.11;101802.41;5024948;28;46563;-73
2021/10/16 02:29:40;;;;;;;;;11.67;10.67;;;;;12.48;71.13;101806.81;4974337;28;59425;-73
2021/10/16 02:32:06;;;;;;;;;12.67;12.00;;;;;12.46;71.25;101805.88;4975613;28;54302;-73
2021/10/16 02:34:31;;;;;;;;;7.33;7.33;;;;;12.42;71.21;101804.06;4966513;28;45428;-73
2021/10/16 02:36:57;;;;;;;;;9.33;9.33;;;;;12.43;71.09;101806.72;5014527;28;55364;-73
2021/10/16 02:39:22;;;;;;;;;12.00;12.00;;;;;12.41;70.96;101804.91;5033065;28;51239;-73
2021/10/16 02:41:48;;;;;;;;;13.00;11.33;;;;;12.33;71.18;101797.69;5014215;28;46342;-73
2021/10/16 02:44:13;;;;;;;;;12.00;12.00;;;;;12.38;71.08;101803.09;5049062;28;45399;-74
2021/10/16 02:46:38;;;;;;;;;13.33;11.00;;;;;12.37;71.08;101800.44;5013227;28;46348;-73
2021/10/16 02:49:04;;;;;;;;;11.00;10.00;;;;;12.36;71.21;101799.53;4989472;28;58230;-73
2021/10/16 02:51:29;;;;;;;;;15.67;11.67;;;;;12.33;71.18;101797.69;5058699;28;45676;-73
2021/10/16 02:53:54;;;;;;;;;15.33;10.33;;;;;12.32;71.15;101798.56;5057927;28;56974;-73
2021/10/16 02:56:20;;;;;;;;;10.67;10.67;;;;;12.30;71.10;101799.38;5057791;28;62848;-73
2021/10/16 02:58:46;;;;;;;;;13.00;12.00;;;;;12.28;71.14;101804.66;5057516;28;60396;-73
2021/10/16 03:01:11;;;;;;;;;16.67;12.00;;;;;12.27;71.06;101804.66;5029786;28;47112;-73
2021/10/16 03:03:37;;;;;;;;;12.33;12.00;;;;;12.25;70.96;101795.75;5023732;28;55391;-73
2021/10/16 03:06:02;;;;;;;;;12.33;11.33;;;;;12.25;70.89;101801.06;4975665;28;47467;-73
2021/10/16 03:08:28;;;;;;;;;16.33;14.67;;;;;12.24;71.00;101801.94;4975094;28;58037;-73
2021/10/16 03:10:53;;;;;;;;;11.33;10.33;;;;;12.22;71.01;101793.97;4975207;28;57052;-73
2021/10/16 03:13:18;;;;;;;;;14.33;13.33;;;;;12.17;70.96;101786.78;4975173;28;53079;-73
2021/10/16 03:15:44;;;;;;;;;16.00;12.33;;;;;12.17;71.03;101790.31;4974670;28;62664;-73
2021/10/16 03:18:09;;;;;;;;;17.00;12.00;;;;;12.16;71.03;101795.59;5040614;28;45453;-72
2021/10/16 03:20:34;;;;;;;;;17.33;11.00;;;;;12.14;70.97;101792.91;5057768;28;53163;-73
2021/10/16 03:23:00;;;;;;;;;11.33;11.33;;;;;12.09;71.25;101781.34;5008436;28;45345;-73
2021/10/16 03:25:26;;;;;;;;;11.67;10.33;;;;;12.09;71.14;101785.72;4975447;28;47233;-73
2021/10/16 03:27:52;;;;;;;;;18.33;10.33;;;;;12.10;71.17;101795.47;4975111;28;45344;-73
2021/10/16 03:30:17;;;;;;;;;12.00;9.00;;;;;12.07;70.94;101799.84;5052896;28;54825;-73
2021/10/16 03:32:43;;;;;;;;;15.67;11.00;;;;;12.06;70.87;101794.53;5032771;28;45336;-73
2021/10/16 03:35:08;;;;;;;;;12.00;10.67;;;;;12.04;71.03;101789.19;4980773;28;58559;-73
2021/10/16 03:37:33;;;;;;;;;12.33;9.00;;;;;11.99;70.85;101788.22;5024564;28;45415;-73
2021/10/16 03:39:59;;;;;;;;;21.00;14.67;;;;;12.01;70.93;101790.88;5011567;28;50190;-73
2021/10/16 03:42:24;;;;;;;;;14.33;9.67;;;;;11.98;70.86;101794.34;5024000;28;50315;-73
2021/10/16 03:44:49;;;;;;;;;10.00;9.00;;;;;11.98;70.97;101791.69;5057071;28;61602;-73
2021/10/16 03:47:15;;;;;;;;;11.00;10.00;;;;;11.97;70.90;101786.38;5057053;28;58678;-73
2021/10/16 03:49:40;;;;;;;;;11.67;9.00;;;;;11.95;70.81;101786.34;4990048;28;45434;-73
2021/10/16 03:52:06;;;;;;;;;12.67;11.00;;;;;11.93;70.97;101784.53;5023948;28;50758;-73
2021/10/16 03:54:31;;;;;;;;;12.00;9.33;;;;;11.90;70.88;101788.00;5057263;28;46662;-73
2021/10/16 03:56:56;;;;;;;;;11.00;11.00;;;;;11.88;70.65;101788.81;5057419;28;45412;-73
2021/10/16 03:59:23;;;;;;;;;13.33;10.00;;;;;11.88;70.83;101788.81;5056705;28;45126;-73
2021/10/16 04:01:49;;;;;;;;;15.00;10.33;;;;;11.86;70.71;101799.38;5048979;28;46739;-73
2021/10/16 04:04:14;;;;;;;;;17.33;12.67;;;;;11.80;70.68;101792.19;5011046;28;51504;-73
2021/10/16 04:06:39;;;;;;;;;16.00;12.00;;;;;11.83;70.77;101809.03;5056982;28;58120;-73
2021/10/16 04:09:05;;;;;;;;;14.67;11.67;;;;;11.81;70.60;101803.66;5056866;28;54544;-73
2021/10/16 04:11:30;;;;;;;;;18.00;11.00;;;;;11.78;70.87;101796.56;5057026;28;53760;-73
2021/10/16 04:13:55;;;;;;;;;10.33;10.33;;;;;11.79;70.95;101802.75;5039215;28;46690;-73
2021/10/16 04:16:21;;;;;;;;;14.00;9.67;;;;;11.73;70.83;101798.22;5047662;28;58891;-73
2021/10/16 04:18:46;;;;;;;;;15.33;10.00;;;;;11.76;70.78;101800.00;5044139;28;45399;-72
2021/10/16 04:21:12;;;;;;;;;11.00;10.00;;;;;11.75;70.93;101809.72;5031879;28;45226;-73
2021/10/16 04:23:37;;;;;;;;;14.00;11.67;;;;;11.74;70.91;101801.75;4994597;28;46455;-73
2021/10/16 04:26:02;;;;;;;;;14.67;12.00;;;;;11.73;70.95;101802.63;5056707;28;57818;-73
2021/10/16 04:28:28;;;;;;;;;12.67;11.00;;;;;11.73;70.91;101806.16;4997495;28;56280;-73
2021/10/16 04:30:53;;;;;;;;;14.33;13.33;;;;;11.73;70.69;101810.56;5057443;28;45176;-73
2021/10/16 04:33:18;;;;;;;;;9.33;9.33;;;;;11.71;70.74;101805.19;5047093;28;61092;-73
2021/10/16 04:35:44;;;;;;;;;10.67;10.00;;;;;11.71;71.00;101809.59;4974115;28;54639;-73
2021/10/16 04:38:09;;;;;;;;;12.33;12.00;;;;;11.67;70.89;101799.84;5045416;28;54807;-73
2021/10/16 04:40:36;;;;;;;;;12.67;11.00;;;;;11.65;70.68;101798.91;5014015;28;45191;-73
2021/10/16 04:43:05;;;;;;;;;11.33;11.33;;;;;11.69;70.80;101804.28;5056735;28;46427;-73
2021/10/16 04:45:30;;;;;;;;;14.67;9.00;;;;;11.67;70.65;101797.19;5009644;28;45470;-72
2021/10/16 04:47:56;;;;;;;;;15.00;10.00;;;;;11.69;71.00;101809.59;4973766;28;57862;-73
2021/10/16 04:50:21;;;;;;;;;15.67;11.33;;;;;11.68;70.92;101807.81;4974401;28;45280;-72
2021/10/16 04:52:47;;;;;;;;;13.33;10.33;;;;;11.69;70.89;101808.69;4956830;28;46426;-73
2021/10/16 04:55:12;;;;;;;;;9.67;9.67;;;;;11.70;70.91;101814.00;4974055;28;47070;-73
2021/10/16 04:57:37;;;;;;;;;13.67;11.00;;;;;11.71;70.98;101813.13;4974452;28;45643;-73
2021/10/16 05:00:04;;;;;;;;;11.33;10.33;;;;;11.74;71.01;101813.22;4974242;28;51603;-73
2021/10/16 05:02:29;;;;;;;;;10.00;9.00;;;;;11.77;70.95;101805.38;4973224;28;47398;-73
2021/10/16 05:04:55;;;;;;;;;9.00;9.00;;;;;11.80;70.92;101812.47;4973652;28;56798;-73
2021/10/16 05:07:20;;;;;;;;;12.33;10.33;;;;;11.80;71.35;101820.41;4974218;28;46368;-73
2021/10/16 05:09:46;;;;;;;;;15.00;10.33;;;;;11.83;71.13;101831.09;4975343;28;45262;-73
2021/10/16 05:12:12;;;;;;;;;14.00;12.33;;;;;11.86;71.04;101827.59;4959521;28;46352;-73
2021/10/16 05:14:37;;;;;;;;;14.00;11.67;;;;;11.88;71.01;101825.88;5026854;28;45308;-73
2021/10/16 05:17:03;;;;;;;;;16.00;11.00;;;;;11.92;70.99;101831.28;4999185;28;45494;-73
2021/10/16 05:19:29;;;;;;;;;14.00;14.00;;;;;11.94;71.14;101821.63;5026805;28;45481;-73
2021/10/16 05:21:54;;;;;;;;;16.00;15.00;;;;;11.99;71.13;101827.91;5048397;28;47244;-73
2021/10/16 05:24:19;;;;;;;;;17.67;15.00;;;;;11.98;71.13;101818.16;5015971;28;45360;-73
2021/10/16 05:26:45;;;;;;;;;19.67;16.33;;;;;12.03;71.15;101821.81;5023292;28;45495;-73
2021/10/16 05:29:10;;;;;;;;;18.75;17.50;;;;;12.05;71.19;101820.09;5010574;28;52108;-73
2021/10/16 05:31:35;;;;;;;;;20.33;15.00;;;;;12.08;71.04;101808.66;5043237;28;48446;-73
2021/10/16 05:34:01;;;;;;;;;18.67;14.67;;;;;12.11;71.16;101818.44;5025721;28;59623;-73
2021/10/16 05:36:26;;;;;;;;;15.33;13.67;;;;;12.12;71.24;101814.94;4988342;28;45458;-73
2021/10/16 05:38:52;;;;;;;;;25.67;18.33;;;;;12.14;71.17;101819.38;5050331;28;49688;-73
2021/10/16 05:41:17;;;;;;;;;16.33;15.67;;;;;12.15;71.10;101818.53;4987338;28;48999;-73
2021/10/16 05:43:42;;;;;;;;;18.50;16.50;;;;;12.17;71.10;101811.50;5059083;28;59030;-73
2021/10/16 05:46:08;;;;;;;;;11.67;10.00;;;;;12.18;71.13;101810.63;4979989;28;56911;-73
2021/10/16 05:48:33;;;;;;;;;18.00;18.00;;;;;12.18;71.26;101815.94;4976937;28;45164;-73
2021/10/16 05:50:59;;;;;;;;;16.33;15.67;;;;;12.17;71.20;101808.88;4988748;28;46926;-73
2021/10/16 05:53:24;;;;;;;;;21.50;17.50;;;;;12.23;71.20;101816.03;5059452;28;45205;-73
2021/10/16 05:55:49;;;;;;;;;17.75;17.25;;;;;12.25;71.09;101816.94;5025758;28;45817;-73
2021/10/16 05:58:15;;;;;;;;;19.33;17.67;;;;;12.29;71.31;101824.09;4975388;28;49170;-73
2021/10/16 06:00:40;;;;;;;;;19.33;17.00;;;;;12.24;71.33;101807.22;4974620;28;60030;-73
2021/10/16 06:03:06;;;;;;;;;25.00;17.00;;;;;12.34;71.21;101819.78;4974493;28;58969;-73
2021/10/16 06:05:31;;;;;;;;;23.67;20.33;;;;;12.36;71.21;101825.09;4982855;28;55929;-73
2021/10/16 06:07:56;;;;;;;;;18.67;15.00;;;;;12.37;71.46;101824.25;5010387;28;52476;-73
2021/10/16 06:10:22;;;;;;;;;16.33;15.00;;;;;12.38;71.35;101821.63;4975575;28;46623;-73
2021/10/16 06:12:47;;;;;;;;;19.00;16.00;;;;;12.39;71.73;101820.75;5006605;28;56064;-73
2021/10/16 06:15:12;;;;;;;;;23.33;18.33;;;;;12.44;71.51;101839.41;4980279;28;45848;-73
2021/10/16 06:17:38;;;;;;;;;14.67;14.67;;;;;12.46;71.34;101835.91;4979461;28;54131;-73
2021/10/16 06:20:04;;;;;;;;;18.33;18.00;;;;;12.45;71.37;101836.78;4977392;28;62488;-73
2021/10/16 06:22:29;;;;;;;;;11.00;6.00;;;;;12.49;71.48;101837.72;4972796;28;45553;-72
2021/10/16 06:24:54;;;;;;;;;18.33;17.00;;;;;12.50;71.61;101834.22;5004510;28;45885;-74
2021/10/16 06:27:20;;;;;;;;;21.33;18.33;;;;;12.50;71.42;101834.22;5011304;28;45422;-73
2021/10/16 06:29:46;;;;;;;;;17.67;14.67;;;;;12.53;71.42;101829.88;4974823;28;46611;-73
2021/10/16 06:32:11;;;;;;;;;17.67;15.67;;;;;12.55;71.33;101828.13;4974126;28;45435;-73
2021/10/16 06:34:38;;;;;;;;;19.67;16.00;;;;;12.58;71.54;101835.28;4960671;28;47459;-73
2021/10/16 06:37:03;;;;;;;;;17.67;15.67;;;;;12.59;71.44;101839.69;4965481;28;45276;-73
2021/10/16 06:39:29;;;;;;;;;22.75;19.25;;;;;12.61;71.25;101832.66;4964927;28;46665;-73
2021/10/16 06:41:54;;;;;;;;;18.00;17.00;;;;;12.61;71.29;101826.47;4974947;28;60347;-73
2021/10/16 06:44:19;;;;;;;;;21.00;18.00;;;;;12.65;71.36;101830.97;4970424;28;46544;-73
2021/10/16 06:46:45;;;;;;;;;20.33;17.00;;;;;12.67;71.00;101826.56;4974332;28;53241;-73
2021/10/16 06:49:10;;;;;;;;;20.00;17.33;;;;;12.67;71.15;101831.88;4953112;28;65424;-73
2021/10/16 06:51:36;;;;;;;;;17.33;15.00;;;;;12.66;71.25;101836.28;4962221;28;45462;-73
2021/10/16 06:54:02;;;;;;;;;19.00;18.33;;;;;12.65;71.28;101834.50;4975337;28;45485;-73
2021/10/16 06:56:28;;;;;;;;;20.50;17.00;;;;;12.60;71.72;101833.53;4974190;28;45470;-80
2021/10/16 06:58:53;;;;;;;;;21.75;19.00;;;;;12.55;72.49;101838.75;4974281;28;46289;-80
2021/10/16 07:01:19;;;;;;;;;20.75;19.75;;;;;12.50;72.56;101840.41;4962296;28;45478;-78
2021/10/16 07:03:44;;;;;;;;;26.00;21.75;;;;;12.41;72.96;101844.63;4970312;28;56127;-78
2021/10/16 07:06:10;;;;;;;;;29.00;19.00;;;;;12.31;73.01;101835.63;4985421;28;52988;-76
2021/10/16 07:08:36;;;;;;;;;21.50;19.75;;;;;12.18;73.26;101834.47;4962674;28;46430;-75
2021/10/16 07:11:01;;;;;;;;;22.00;19.25;;;;;12.09;73.78;101847.53;4979971;28;45451;-78
2021/10/16 07:13:27;;;;;;;;;22.75;18.25;;;;;12.00;74.70;101849.97;4972965;28;45549;-77
2021/10/16 07:15:52;;;;;;;;;26.75;21.00;;;;;11.93;75.05;101854.25;4974191;28;45823;-77
2021/10/16 07:18:17;;;;;;;;;20.25;15.25;;;;;11.84;75.30;101855.81;4973671;28;53550;-78
2021/10/16 07:20:43;;;;;;;;;22.75;19.50;;;;;11.85;76.37;101866.41;5040393;28;45173;-78
2021/10/16 07:23:08;;;;;;;;;28.75;20.50;;;;;11.86;76.80;101862.00;4954236;28;45317;-75
2021/10/16 07:25:34;;;;;;;;;21.25;15.25;;;;;11.88;75.79;101861.19;4971126;28;53770;-79
2021/10/16 07:27:59;;;;;;;;;21.25;17.50;;;;;11.92;76.10;101865.69;4943572;28;48895;-76
2021/10/16 07:30:25;;;;;;;;;21.00;16.00;;;;;11.96;75.49;101856.97;4980062;28;56929;-75
2021/10/16 07:35:16;;;;;;;;;25.00;21.67;;;;;12.23;74.92;101856.63;5065534;23;63651;-75
2021/10/16 07:37:41;;;;;;;;;22.67;19.33;;;;;12.33;74.31;101860.38;4940890;28;46396;-75
2021/10/16 07:40:07;;;;;;;;;18.67;18.00;;;;;12.45;74.12;101870.31;4947970;28;45336;-74
2021/10/16 07:42:32;;;;;;;;;24.67;19.00;;;;;12.50;73.91;101866.91;4952006;28;45474;-75
2021/10/16 07:44:58;;;;;;;;;17.33;16.33;;;;;12.56;73.78;101869.66;4938617;28;46934;-75
2021/10/16 07:47:26;;;;;;;;;19.33;15.67;;;;;12.57;73.33;101868.81;4954734;28;46543;-75
2021/10/16 07:49:52;;;;;;;;;19.00;14.67;;;;;12.58;73.27;101860.00;4935754;28;45656;-75
2021/10/16 07:52:18;;;;;;;;;20.00;17.00;;;;;12.57;73.11;101854.69;4954763;28;45565;-76
2021/10/16 07:54:43;;;;;;;;;17.33;17.33;;;;;12.57;73.24;101863.53;4938026;28;45809;-74
2021/10/16 07:57:08;;;;;;;;;20.00;19.33;;;;;12.59;72.80;101869.72;4957337;28;57582;-76
2021/10/16 07:59:34;;;;;;;;;22.67;18.33;;;;;12.61;73.17;101869.75;5002041;28;48074;-75
2021/10/16 08:01:59;;;;;;;;;18.67;17.00;;;;;12.63;72.95;101873.34;4978142;28;45301;-74
2021/10/16 08:04:25;;;;;;;;;25.67;19.00;;;;;12.65;73.03;101871.59;5001526;28;45422;-75
2021/10/16 08:06:50;;;;;;;;;21.00;20.00;;;;;12.67;72.98;101876.91;5029850;28;56896;-75
2021/10/16 08:09:15;;;;;;;;;21.67;18.00;;;;;12.68;72.83;101871.69;4964000;28;45231;-75
2021/10/16 08:11:41;;;;;;;;;29.33;18.67;;;;;12.70;73.01;101869.03;5037210;28;45348;-75
2021/10/16 08:14:06;;;;;;;;;21.33;13.33;;;;;12.71;72.97;101876.13;5036619;28;54372;-75
2021/10/16 08:16:32;;;;;;;;;17.00;11.00;;;;;12.72;72.70;101873.50;5036927;28;46842;-74
2021/10/16 08:18:58;;;;;;;;;17.00;14.67;;;;;12.74;72.60;101863.84;4998740;28;45435;-75
2021/10/16 08:21:23;;;;;;;;;19.67;17.33;;;;;12.77;72.63;101869.19;4963026;28;45576;-75
2021/10/16 08:23:48;;;;;;;;;18.33;16.00;;;;;12.77;72.60;101863.00;4958287;28;46003;-74
2021/10/16 08:26:14;;;;;;;;;17.67;17.67;;;;;12.80;72.29;101863.06;4969548;28;53537;-75
2021/10/16 08:28:39;;;;;;;;;14.00;14.00;;;;;12.84;72.03;101870.22;4965233;28;45408;-75
2021/10/16 08:31:05;;;;;;;;;17.00;13.00;;;;;12.83;72.07;101860.44;4979357;28;45351;-75
2021/10/16 08:33:33;;;;;;;;;14.00;13.33;;;;;12.91;71.52;101865.91;4951636;28;45379;-77
2021/10/16 08:36:00;;;;;;;;;13.33;12.67;;;;;12.94;71.99;101874.78;4953061;28;46462;-75
2021/10/16 08:38:25;;;;;;;;;21.33;14.67;;;;;12.93;71.36;101862.41;4954315;28;45460;-74
2021/10/16 08:40:51;;;;;;;;;20.67;13.33;;;;;13.00;71.31;101866.97;4954827;28;45382;-75
2021/10/16 08:43:17;;;;;;;;;16.33;11.67;;;;;13.04;71.58;101874.09;4966686;28;45947;-75
2021/10/16 08:45:42;;;;;;;;;18.67;14.33;;;;;13.05;70.76;101885.59;4971269;28;46623;-75
2021/10/16 08:48:08;;;;;;;;;14.67;14.33;;;;;13.11;70.99;101902.50;4935646;28;56747;-76
2021/10/16 08:50:34;;;;;;;;;20.00;14.00;;;;;13.16;71.04;101896.41;4968092;28;45582;-75
2021/10/16 08:53:00;;;;;;;;;20.33;18.33;;;;;13.19;70.96;101889.38;4954139;28;45474;-76
2021/10/16 08:55:25;;;;;;;;;19.33;16.67;;;;;13.15;70.76;101870.72;4973300;28;55552;-75
2021/10/16 08:57:50;;;;;;;;;21.00;16.00;;;;;13.27;70.66;101890.44;4953916;28;45405;-74
2021/10/16 09:00:53;;;;;;;;;18.67;14.00;;;;;13.32;70.81;101898.47;4966753;28;45244;-76
2021/10/16 09:03:32;;;;;;;;;17.67;16.00;;;;;13.36;70.59;101898.53;4974031;28;45304;-75
2021/10/16 09:06:06;;;;;;;;;18.33;16.33;;;;;13.41;70.53;101892.41;4953176;28;46411;-75
2021/10/16 09:08:35;;;;;;;;;19.33;18.00;;;;;13.44;70.73;101901.34;4954166;28;45360;-75
2021/10/16 09:11:20;;;;;;;;;16.00;15.67;;;;;13.48;70.07;101897.88;4939431;28;45487;-75
2021/10/16 09:13:54;;;;;;;;;19.33;18.67;;;;;13.53;70.47;101893.53;4976977;28;45147;-75
2021/10/16 09:16:20;;;;;;;;;18.00;15.67;;;;;13.57;69.63;101905.94;5035945;28;45167;-75
2021/10/16 09:18:57;;;;;;;;;19.33;16.00;;;;;13.61;69.92;101899.84;5003590;28;45431;-75
2021/10/16 09:21:24;;;;;;;;;19.67;17.00;;;;;13.66;69.32;101901.66;5036366;28;45363;-75
2021/10/16 09:24:04;;;;;;;;;17.33;14.00;;;;;13.69;68.94;101896.38;4959236;28;45332;-75
2021/10/16 09:26:30;;;;;;;;;14.00;14.00;;;;;13.69;69.47;101885.78;4953307;28;47403;-75
2021/10/16 09:29:00;;;;;;;;;18.67;14.67;;;;;13.73;68.66;101887.63;4975649;28;45591;-75
2021/10/16 09:31:32;;;;;;;;;20.00;18.00;;;;;13.81;68.88;101893.94;4952475;28;45544;-75
2021/10/16 09:33:58;;;;;;;;;23.00;18.33;;;;;13.81;68.45;101880.66;4953334;28;45444;-76
2021/10/16 09:36:24;;;;;;;;;19.00;17.67;;;;;13.88;68.47;101886.06;4957162;28;45640;-74
2021/10/16 09:38:50;;;;;;;;;25.00;21.00;;;;;13.93;68.41;101891.47;4934460;28;46054;-75
2021/10/16 09:41:28;;;;;;;;;19.67;18.00;;;;;13.97;67.15;101881.78;4968310;28;45312;-75
2021/10/16 09:43:54;;;;;;;;;15.33;15.00;;;;;14.01;67.79;101886.22;4949531;28;45442;-75
2021/10/16 09:46:20;;;;;;;;;15.33;14.00;;;;;14.03;67.47;101881.88;5018066;28;46475;-74
2021/10/16 09:48:46;;;;;;;;;20.67;16.67;;;;;14.09;67.65;101885.47;4952000;28;45339;-75
2021/10/16 09:51:14;;;;;;;;;21.33;18.67;;;;;14.12;67.46;101882.88;4956285;28;45467;-75
2021/10/16 09:53:41;;;;;;;;;25.33;18.67;;;;;14.18;66.94;101890.03;4969345;28;45468;-75
2021/10/16 09:56:06;;;;;;;;;22.67;18.00;;;;;14.22;67.44;101882.97;4978427;28;47669;-75
2021/10/16 09:58:31;;;;;;;;;24.67;20.00;;;;;14.25;67.32;101877.72;4941155;28;59097;-76
2021/10/16 10:00:58;;;;;;;;;23.33;19.67;;;;;14.30;67.26;101886.63;4938202;28;48140;-75
2021/10/16 10:03:26;;;;;;;;;18.00;14.67;;;;;14.32;66.03;101871.59;4950577;28;45348;-75
2021/10/16 10:05:52;;;;;;;;;21.00;20.33;;;;;14.37;65.42;101877.84;4951863;28;47623;-77
2021/10/16 10:08:20;;;;;;;;;21.33;19.00;;;;;14.39;64.79;101873.47;4963503;28;46302;-76
2021/10/16 10:10:46;;;;;;;;;19.00;16.67;;;;;14.45;64.99;101877.97;4952949;28;53805;-76
2021/10/16 10:13:12;;;;;;;;;17.00;16.00;;;;;14.48;65.79;101873.59;4953668;28;45582;-78
2021/10/16 10:15:37;;;;;;;;;19.00;16.67;;;;;14.53;64.45;101884.28;4938751;28;46570;-79
2021/10/16 10:18:59;;;;;;;;;18.33;17.33;;;;;14.55;64.39;101869.28;4955741;28;48909;-78
2021/10/16 10:20:48;;;;;;;;;18.67;17.33;;;;;14.58;64.80;101878.16;4959316;28;45479;-77
2021/10/16 10:23:21;;;;;;;;;18.33;15.67;;;;;14.59;65.24;101863.09;4969572;28;50130;-82
2021/10/16 10:25:46;;;;;;;;;17.67;15.00;;;;;14.66;65.44;101876.47;4988095;28;47582;-84
2021/10/16 10:28:12;;;;;;;;;22.33;17.00;;;;;14.69;63.80;101867.63;4958347;28;57581;-82
2021/10/16 10:30:41;;;;;;;;;18.67;17.00;;;;;14.71;62.77;101865.91;4955622;28;52267;-82
2021/10/16 10:33:15;;;;;;;;;18.33;16.33;;;;;14.80;62.47;101875.72;4950967;28;45464;-81
2021/10/16 10:35:47;;;;;;;;;17.33;15.00;;;;;14.82;63.46;101871.31;4949725;28;46649;-77
2021/10/16 10:38:35;;;;;;;;;17.67;16.33;;;;;14.88;64.79;101872.28;4949433;28;45530;-80
2021/10/16 10:41:25;;;;;;;;;16.33;15.67;;;;;14.94;62.51;101868.78;4952819;28;45741;-81
2021/10/16 10:43:52;;;;;;;;;17.33;15.33;;;;;14.98;61.19;101877.69;4956452;28;45533;-80
2021/10/16 10:46:24;;;;;;;;;18.33;16.67;;;;;15.02;62.32;101885.72;4955400;28;46622;-80
2021/10/16 10:48:50;;;;;;;;;11.33;11.33;;;;;15.05;62.87;101883.06;4922200;28;45456;-77
2021/10/16 10:51:28;;;;;;;;;13.67;10.67;;;;;15.08;60.66;101877.78;4956040;28;50250;-80
2021/10/16 10:54:14;;;;;;;;;12.33;11.00;;;;;15.12;62.01;101874.25;4956967;28;45438;-81
2021/10/16 10:56:40;;;;;;;;;12.33;9.67;;;;;15.17;58.25;101869.88;4967093;28;46670;-83
2021/10/16 10:59:16;;;;;;;;;11.33;9.33;;;;;15.18;61.01;101863.69;4968534;28;45333;-78
2021/10/16 11:01:49;;;;;;;;;9.67;8.00;;;;;15.27;61.17;101867.28;4954976;28;45423;-80
2021/10/16 11:04:43;;;;;;;;;10.67;9.33;;;;;15.31;59.81;101858.47;4942562;28;45537;-79
2021/10/16 11:07:11;;;;;;;;;10.00;9.00;;;;;15.29;60.33;101852.25;4954361;28;47288;-75
2021/10/16 11:09:36;;;;;;;;;14.67;11.33;;;;;15.33;58.79;101852.25;4948230;28;45431;-76